CDT,Max TemperatureF,Mean TemperatureF,Min TemperatureF,Max Dew PointF,MeanDew PointF,Min DewpointF,Max Humidity, Mean Humidity, Min Humidity, Max Sea Level PressureIn, Mean Sea Level PressureIn, Min Sea Level PressureIn, Max VisibilityMiles, Mean VisibilityMiles, Min VisibilityMiles, Max Wind SpeedMPH, Mean Wind SpeedMPH, Max Gust SpeedMPH,PrecipitationIn, CloudCover, Events, WindDirDegrees
2012-10-1,75,62,50,52,48,43,94,66,31,29.91,29.87,29.82,10,4,0,9,3,,0.00,0,,69
2012-10-2,77,62,46,52,45,37,100,59,24,29.91,29.87,29.84,10,9,1,9,2,,0.00,0,,22
2012-10-3,80,64,48,59,50,43,93,61,30,30.02,29.95,29.90,10,10,2,10,2,,0.00,0,,170
2012-10-4,69,58,46,61,54,46,100,88,52,30.23,30.11,30.02,10,10,5,18,9,26,0.37,3,Rain,249
2012-10-5,48,44,39,48,41,36,100,83,62,30.26,30.22,30.18,10,10,10,17,6,26,0.01,4,Rain,304
2012-10-6,48,40,33,36,33,30,87,71,58,30.27,30.24,30.19,10,10,10,16,8,22,0.00,4,,297
2012-10-7,55,44,33,36,31,25,93,60,31,30.28,30.21,30.14,10,10,10,14,5,18,0.00,2,,270
2012-10-8,64,52,39,39,37,34,87,60,34,30.14,30.06,29.97,10,10,10,20,9,28,0.00,0,,195
2012-10-9,69,58,46,48,45,39,100,69,40,30.04,29.94,29.85,10,10,7,20,12,29,0.18,2,Rain,234
2012-10-10,60,48,37,43,35,28,93,65,31,30.24,30.16,30.04,10,10,10,17,9,23,0.00,0,,268
2012-10-11,73,60,46,52,41,37,71,56,35,30.28,30.14,30.06,10,10,10,16,10,21,0.00,1,,202
2012-10-12,64,54,44,46,36,30,67,50,32,30.43,30.32,30.21,10,10,10,15,10,20,0.00,2,Rain,80
2012-10-13,73,65,57,70,61,48,100,94,72,30.15,29.92,29.73,10,7,2,25,10,37,1.08,7,Rain,172
2012-10-14,66,60,53,66,59,52,100,95,82,29.91,29.70,29.50,10,9,4,28,11,43,0.61,6,Rain,246
2012-10-15,68,57,46,52,47,45,100,74,43,30.01,29.96,29.91,10,10,2,9,5,,0.00,0,,272
2012-10-16,82,68,53,57,52,46,88,60,39,29.91,29.66,29.49,10,10,4,21,10,30,0.00,1,,181
2012-10-17,69,61,51,64,54,45,100,76,56,29.54,29.46,29.36,10,10,4,22,11,28,0.39,4,Rain,220
2012-10-18,53,50,46,48,42,36,100,75,51,29.50,29.47,29.43,10,9,5,18,11,31,0.17,6,Rain,234
2012-10-19,57,52,46,52,48,46,100,93,72,29.76,29.60,29.43,10,8,2,21,11,29,0.07,8,Rain,278
2012-10-20,60,54,48,52,49,48,100,87,63,29.90,29.85,29.76,10,10,7,12,6,,0.00,5,,233
2012-10-21,78,63,48,63,56,48,100,80,53,29.93,29.89,29.86,10,9,2,12,7,,0.00,1,,134
2012-10-22,78,72,66,73,69,64,100,94,83,29.91,29.86,29.83,10,8,2,12,7,,0.18,6,Rain,153
2012-10-23,77,72,66,72,69,66,100,92,78,29.90,29.85,29.80,10,10,7,16,8,23,0.04,5,Rain,185
2012-10-24,84,76,69,72,68,64,94,81,66,29.89,29.84,29.77,10,10,10,18,10,25,0.00,1,,183
2012-10-25,75,58,42,70,55,36,100,86,73,30.22,29.87,29.69,10,9,3,29,15,36,0.24,6,Rain,255
2012-10-26,50,42,35,37,34,32,93,72,54,30.40,30.35,30.23,10,10,10,21,13,29,0.00,1,,333
2012-10-27,48,38,28,34,30,28,100,73,50,30.40,30.34,30.28,10,10,5,12,6,17,0.00,0,,353
2012-10-28,53,42,30,36,31,28,93,68,47,30.34,30.30,30.27,10,10,4,10,2,16,0.00,1,,20
2012-10-29,55,42,30,37,31,27,100,68,33,30.36,30.29,30.17,10,9,2,9,2,,0.00,1,,31
2012-10-30,57,45,33,34,29,27,81,57,31,30.17,30.02,29.93,10,10,10,20,8,28,0.00,0,,327
2012-10-31,55,42,30,32,27,21,93,58,26,30.00,29.97,29.94,10,10,10,16,10,23,0.00,0,,307